sensor_id;sensor_type;location;lat;lon;timestamp;P1;durP1;ratioP1;P2;durP2;ratioP2
42832;SDS011;64089;51.478;5.692;2023-12-22T00:01:14;5.97;;;1.35;;
42832;SDS011;64089;51.478;5.692;2023-12-22T00:03:41;8.20;;;1.83;;
42832;SDS011;64089;51.478;5.692;2023-12-22T00:06:07;5.65;;;0.85;;
42832;SDS011;64089;51.478;5.692;2023-12-22T00:08:33;9.38;;;1.75;;
42832;SDS011;64089;51.478;5.692;2023-12-22T00:10:58;8.52;;;1.27;;
42832;SDS011;64089;51.478;5.692;2023-12-22T00:13:24;6.60;;;0.90;;
42832;SDS011;64089;51.478;5.692;2023-12-22T00:15:50;8.63;;;1.27;;
42832;SDS011;64089;51.478;5.692;2023-12-22T00:18:16;12.80;;;1.30;;
42832;SDS011;64089;51.478;5.692;2023-12-22T00:20:41;10.48;;;1.75;;
42832;SDS011;64089;51.478;5.692;2023-12-22T00:23:07;10.07;;;1.27;;
42832;SDS011;64089;51.478;5.692;2023-12-22T00:25:32;6.18;;;0.77;;
42832;SDS011;64089;51.478;5.692;2023-12-22T00:27:58;4.25;;;0.85;;
42832;SDS011;64089;51.478;5.692;2023-12-22T00:30:23;6.25;;;1.85;;
42832;SDS011;64089;51.478;5.692;2023-12-22T00:32:49;10.15;;;1.45;;
42832;SDS011;64089;51.478;5.692;2023-12-22T00:35:15;13.00;;;1.40;;
42832;SDS011;64089;51.478;5.692;2023-12-22T00:37:40;9.02;;;1.08;;
42832;SDS011;64089;51.478;5.692;2023-12-22T00:40:07;7.47;;;1.30;;
42832;SDS011;64089;51.478;5.692;2023-12-22T00:42:34;8.13;;;1.52;;
42832;SDS011;64089;51.478;5.692;2023-12-22T00:45:00;9.35;;;1.52;;
42832;SDS011;64089;51.478;5.692;2023-12-22T00:47:25;10.20;;;1.55;;
42832;SDS011;64089;51.478;5.692;2023-12-22T00:49:51;7.43;;;1.33;;
42832;SDS011;64089;51.478;5.692;2023-12-22T00:52:16;6.28;;;1.35;;
42832;SDS011;64089;51.478;5.692;2023-12-22T00:54:42;6.70;;;1.15;;
42832;SDS011;64089;51.478;5.692;2023-12-22T00:57:07;8.60;;;1.17;;
42832;SDS011;64089;51.478;5.692;2023-12-22T00:59:33;6.43;;;1.00;;
42832;SDS011;64089;51.478;5.692;2023-12-22T01:01:59;6.30;;;0.82;;
42832;SDS011;64089;51.478;5.692;2023-12-22T01:04:24;11.10;;;1.67;;
42832;SDS011;64089;51.478;5.692;2023-12-22T01:06:50;6.60;;;1.65;;
42832;SDS011;64089;51.478;5.692;2023-12-22T01:09:15;20.77;;;2.28;;
42832;SDS011;64089;51.478;5.692;2023-12-22T01:11:41;7.70;;;1.50;;
42832;SDS011;64089;51.478;5.692;2023-12-22T01:14:07;9.93;;;1.52;;
42832;SDS011;64089;51.478;5.692;2023-12-22T01:16:32;6.00;;;1.60;;
42832;SDS011;64089;51.478;5.692;2023-12-22T01:18:58;4.32;;;1.35;;
42832;SDS011;64089;51.478;5.692;2023-12-22T01:21:24;9.15;;;1.20;;
42832;SDS011;64089;51.478;5.692;2023-12-22T01:23:49;14.55;;;1.52;;
42832;SDS011;64089;51.478;5.692;2023-12-22T01:26:15;6.80;;;1.23;;
42832;SDS011;64089;51.478;5.692;2023-12-22T01:28:40;9.93;;;1.52;;
42832;SDS011;64089;51.478;5.692;2023-12-22T01:31:06;21.00;;;2.38;;
42832;SDS011;64089;51.478;5.692;2023-12-22T01:33:32;7.65;;;1.45;;
42832;SDS011;64089;51.478;5.692;2023-12-22T01:35:57;7.63;;;1.80;;
42832;SDS011;64089;51.478;5.692;2023-12-22T01:38:23;11.82;;;2.28;;
42832;SDS011;64089;51.478;5.692;2023-12-22T01:40:48;13.55;;;1.73;;
42832;SDS011;64089;51.478;5.692;2023-12-22T01:43:14;17.30;;;1.35;;
42832;SDS011;64089;51.478;5.692;2023-12-22T01:45:42;14.68;;;1.98;;
42832;SDS011;64089;51.478;5.692;2023-12-22T01:48:09;13.30;;;1.20;;
42832;SDS011;64089;51.478;5.692;2023-12-22T01:50:35;7.63;;;1.98;;
42832;SDS011;64089;51.478;5.692;2023-12-22T01:53:02;7.93;;;2.08;;
42832;SDS011;64089;51.478;5.692;2023-12-22T01:55:28;13.85;;;2.75;;
42832;SDS011;64089;51.478;5.692;2023-12-22T01:57:54;6.72;;;1.88;;
42832;SDS011;64089;51.478;5.692;2023-12-22T02:00:21;14.20;;;1.92;;
42832;SDS011;64089;51.478;5.692;2023-12-22T02:02:47;18.63;;;1.90;;
42832;SDS011;64089;51.478;5.692;2023-12-22T02:05:12;7.30;;;1.48;;
42832;SDS011;64089;51.478;5.692;2023-12-22T02:07:38;12.18;;;2.75;;
42832;SDS011;64089;51.478;5.692;2023-12-22T02:10:07;10.80;;;1.67;;
42832;SDS011;64089;51.478;5.692;2023-12-22T02:12:34;19.02;;;2.92;;
42832;SDS011;64089;51.478;5.692;2023-12-22T02:15:00;5.53;;;2.50;;
42832;SDS011;64089;51.478;5.692;2023-12-22T02:17:26;17.33;;;2.90;;
42832;SDS011;64089;51.478;5.692;2023-12-22T02:22:34;9.95;;;1.52;;
42832;SDS011;64089;51.478;5.692;2023-12-22T02:25:00;6.85;;;2.10;;
42832;SDS011;64089;51.478;5.692;2023-12-22T02:28:09;9.48;;;1.13;;
42832;SDS011;64089;51.478;5.692;2023-12-22T02:30:26;14.35;;;2.42;;
42832;SDS011;64089;51.478;5.692;2023-12-22T02:33:12;13.50;;;1.45;;
42832;SDS011;64089;51.478;5.692;2023-12-22T02:35:40;20.88;;;3.00;;
42832;SDS011;64089;51.478;5.692;2023-12-22T02:38:07;10.70;;;1.55;;
42832;SDS011;64089;51.478;5.692;2023-12-22T02:40:34;14.68;;;1.73;;
42832;SDS011;64089;51.478;5.692;2023-12-22T02:43:01;5.90;;;1.52;;
42832;SDS011;64089;51.478;5.692;2023-12-22T02:45:27;4.85;;;1.05;;
42832;SDS011;64089;51.478;5.692;2023-12-22T02:47:55;11.27;;;1.75;;
42832;SDS011;64089;51.478;5.692;2023-12-22T02:50:20;13.98;;;1.95;;
42832;SDS011;64089;51.478;5.692;2023-12-22T02:52:46;8.70;;;2.25;;
42832;SDS011;64089;51.478;5.692;2023-12-22T02:55:12;6.70;;;1.20;;
42832;SDS011;64089;51.478;5.692;2023-12-22T02:57:38;9.73;;;1.40;;
42832;SDS011;64089;51.478;5.692;2023-12-22T03:00:04;6.80;;;2.00;;
42832;SDS011;64089;51.478;5.692;2023-12-22T03:02:30;1.80;;;0.47;;
42832;SDS011;64089;51.478;5.692;2023-12-22T03:04:56;9.10;;;1.20;;
42832;SDS011;64089;51.478;5.692;2023-12-22T03:07:21;16.33;;;1.30;;
42832;SDS011;64089;51.478;5.692;2023-12-22T03:09:47;15.95;;;1.77;;
42832;SDS011;64089;51.478;5.692;2023-12-22T03:12:13;3.55;;;1.23;;
42832;SDS011;64089;51.478;5.692;2023-12-22T03:14:38;13.20;;;2.45;;
42832;SDS011;64089;51.478;5.692;2023-12-22T03:17:05;15.63;;;1.95;;
42832;SDS011;64089;51.478;5.692;2023-12-22T03:19:31;8.80;;;1.25;;
42832;SDS011;64089;51.478;5.692;2023-12-22T03:21:58;5.85;;;1.73;;
42832;SDS011;64089;51.478;5.692;2023-12-22T03:24:24;17.13;;;1.77;;
42832;SDS011;64089;51.478;5.692;2023-12-22T03:26:51;21.10;;;2.10;;
42832;SDS011;64089;51.478;5.692;2023-12-22T03:29:17;4.40;;;1.50;;
42832;SDS011;64089;51.478;5.692;2023-12-22T03:31:44;11.55;;;1.13;;
42832;SDS011;64089;51.478;5.692;2023-12-22T03:34:10;4.15;;;1.27;;
42832;SDS011;64089;51.478;5.692;2023-12-22T03:36:36;5.43;;;1.47;;
42832;SDS011;64089;51.478;5.692;2023-12-22T03:39:02;11.88;;;1.27;;
42832;SDS011;64089;51.478;5.692;2023-12-22T03:41:28;8.45;;;2.20;;
42832;SDS011;64089;51.478;5.692;2023-12-22T03:43:54;9.80;;;2.22;;
42832;SDS011;64089;51.478;5.692;2023-12-22T03:46:20;12.52;;;1.45;;
42832;SDS011;64089;51.478;5.692;2023-12-22T03:48:46;10.93;;;1.83;;
42832;SDS011;64089;51.478;5.692;2023-12-22T03:51:11;7.32;;;1.40;;
42832;SDS011;64089;51.478;5.692;2023-12-22T03:53:38;12.95;;;1.60;;
42832;SDS011;64089;51.478;5.692;2023-12-22T03:56:04;15.57;;;1.42;;
42832;SDS011;64089;51.478;5.692;2023-12-22T03:58:29;7.97;;;2.63;;
42832;SDS011;64089;51.478;5.692;2023-12-22T04:00:55;7.97;;;1.20;;
42832;SDS011;64089;51.478;5.692;2023-12-22T04:03:21;14.88;;;2.15;;
42832;SDS011;64089;51.478;5.692;2023-12-22T04:05:47;5.65;;;0.95;;
42832;SDS011;64089;51.478;5.692;2023-12-22T04:08:12;8.95;;;1.08;;
42832;SDS011;64089;51.478;5.692;2023-12-22T04:10:38;5.95;;;1.00;;
42832;SDS011;64089;51.478;5.692;2023-12-22T04:13:04;10.18;;;1.90;;
42832;SDS011;64089;51.478;5.692;2023-12-22T04:15:29;7.97;;;1.48;;
42832;SDS011;64089;51.478;5.692;2023-12-22T04:17:55;10.32;;;1.65;;
42832;SDS011;64089;51.478;5.692;2023-12-22T04:20:20;9.95;;;1.90;;
42832;SDS011;64089;51.478;5.692;2023-12-22T04:22:46;8.90;;;1.05;;
42832;SDS011;64089;51.478;5.692;2023-12-22T04:25:11;13.15;;;1.55;;
42832;SDS011;64089;51.478;5.692;2023-12-22T04:27:37;9.02;;;1.83;;
42832;SDS011;64089;51.478;5.692;2023-12-22T04:30:03;16.95;;;1.58;;
42832;SDS011;64089;51.478;5.692;2023-12-22T04:32:28;13.05;;;2.30;;
42832;SDS011;64089;51.478;5.692;2023-12-22T04:34:54;11.27;;;1.88;;
42832;SDS011;64089;51.478;5.692;2023-12-22T04:37:20;11.43;;;1.85;;
42832;SDS011;64089;51.478;5.692;2023-12-22T04:39:45;8.35;;;2.20;;
42832;SDS011;64089;51.478;5.692;2023-12-22T04:42:11;9.55;;;1.75;;
42832;SDS011;64089;51.478;5.692;2023-12-22T04:44:36;5.00;;;0.85;;
42832;SDS011;64089;51.478;5.692;2023-12-22T04:47:02;12.35;;;1.45;;
42832;SDS011;64089;51.478;5.692;2023-12-22T04:49:28;9.52;;;1.45;;
42832;SDS011;64089;51.478;5.692;2023-12-22T04:51:53;4.28;;;1.50;;
42832;SDS011;64089;51.478;5.692;2023-12-22T04:54:19;10.27;;;1.10;;
42832;SDS011;64089;51.478;5.692;2023-12-22T04:56:44;11.57;;;1.25;;
42832;SDS011;64089;51.478;5.692;2023-12-22T04:59:10;6.00;;;1.65;;
42832;SDS011;64089;51.478;5.692;2023-12-22T05:01:35;3.25;;;1.10;;
42832;SDS011;64089;51.478;5.692;2023-12-22T05:04:01;11.40;;;0.80;;
42832;SDS011;64089;51.478;5.692;2023-12-22T05:06:27;8.60;;;0.88;;
42832;SDS011;64089;51.478;5.692;2023-12-22T05:08:54;14.10;;;1.38;;
42832;SDS011;64089;51.478;5.692;2023-12-22T05:11:21;6.35;;;0.85;;
42832;SDS011;64089;51.478;5.692;2023-12-22T05:13:46;19.55;;;2.03;;
42832;SDS011;64089;51.478;5.692;2023-12-22T05:16:12;4.38;;;1.23;;
42832;SDS011;64089;51.478;5.692;2023-12-22T05:18:38;11.32;;;1.75;;
42832;SDS011;64089;51.478;5.692;2023-12-22T05:21:04;6.43;;;1.20;;
42832;SDS011;64089;51.478;5.692;2023-12-22T05:23:30;10.85;;;1.75;;
42832;SDS011;64089;51.478;5.692;2023-12-22T05:25:56;11.40;;;1.50;;
42832;SDS011;64089;51.478;5.692;2023-12-22T05:28:21;7.07;;;1.20;;
42832;SDS011;64089;51.478;5.692;2023-12-22T05:30:47;13.93;;;0.90;;
42832;SDS011;64089;51.478;5.692;2023-12-22T05:33:12;13.07;;;1.40;;
42832;SDS011;64089;51.478;5.692;2023-12-22T05:35:38;5.47;;;1.50;;
42832;SDS011;64089;51.478;5.692;2023-12-22T05:38:03;3.88;;;1.02;;
42832;SDS011;64089;51.478;5.692;2023-12-22T05:40:31;4.72;;;0.82;;
42832;SDS011;64089;51.478;5.692;2023-12-22T05:42:57;6.05;;;1.85;;
42832;SDS011;64089;51.478;5.692;2023-12-22T05:45:22;4.93;;;0.82;;
42832;SDS011;64089;51.478;5.692;2023-12-22T05:47:49;2.67;;;0.80;;
42832;SDS011;64089;51.478;5.692;2023-12-22T05:50:15;8.55;;;1.23;;
42832;SDS011;64089;51.478;5.692;2023-12-22T05:52:41;7.60;;;1.25;;
42832;SDS011;64089;51.478;5.692;2023-12-22T05:55:08;5.95;;;1.13;;
42832;SDS011;64089;51.478;5.692;2023-12-22T05:57:34;12.57;;;1.23;;
42832;SDS011;64089;51.478;5.692;2023-12-22T06:00:00;7.88;;;2.13;;
42832;SDS011;64089;51.478;5.692;2023-12-22T06:02:25;19.17;;;4.35;;
42832;SDS011;64089;51.478;5.692;2023-12-22T06:04:51;9.88;;;2.08;;
42832;SDS011;64089;51.478;5.692;2023-12-22T06:07:17;17.27;;;4.03;;
42832;SDS011;64089;51.478;5.692;2023-12-22T06:09:44;10.65;;;1.65;;
42832;SDS011;64089;51.478;5.692;2023-12-22T06:12:10;19.63;;;3.03;;
42832;SDS011;64089;51.478;5.692;2023-12-22T06:14:35;10.80;;;2.83;;
42832;SDS011;64089;51.478;5.692;2023-12-22T06:17:01;7.28;;;1.85;;
42832;SDS011;64089;51.478;5.692;2023-12-22T06:19:27;11.57;;;1.73;;
42832;SDS011;64089;51.478;5.692;2023-12-22T06:21:55;11.60;;;2.10;;
42832;SDS011;64089;51.478;5.692;2023-12-22T06:24:22;10.23;;;2.00;;
42832;SDS011;64089;51.478;5.692;2023-12-22T06:26:48;17.73;;;2.05;;
42832;SDS011;64089;51.478;5.692;2023-12-22T06:29:13;10.30;;;1.25;;
42832;SDS011;64089;51.478;5.692;2023-12-22T06:31:39;6.93;;;1.50;;
42832;SDS011;64089;51.478;5.692;2023-12-22T06:34:05;8.45;;;1.48;;
42832;SDS011;64089;51.478;5.692;2023-12-22T06:36:30;11.52;;;1.92;;
42832;SDS011;64089;51.478;5.692;2023-12-22T06:38:56;5.53;;;1.65;;
42832;SDS011;64089;51.478;5.692;2023-12-22T06:43:49;20.17;;;2.92;;
42832;SDS011;64089;51.478;5.692;2023-12-22T06:46:19;29.30;;;4.93;;
42832;SDS011;64089;51.478;5.692;2023-12-22T06:48:47;13.70;;;3.92;;
42832;SDS011;64089;51.478;5.692;2023-12-22T06:51:19;14.63;;;2.25;;
42832;SDS011;64089;51.478;5.692;2023-12-22T06:53:46;11.45;;;2.50;;
42832;SDS011;64089;51.478;5.692;2023-12-22T06:56:16;14.32;;;3.25;;
42832;SDS011;64089;51.478;5.692;2023-12-22T06:58:46;24.05;;;3.00;;
42832;SDS011;64089;51.478;5.692;2023-12-22T07:01:26;21.55;;;3.15;;
42832;SDS011;64089;51.478;5.692;2023-12-22T07:03:59;21.63;;;4.50;;
42832;SDS011;64089;51.478;5.692;2023-12-22T07:06:26;14.38;;;2.50;;
42832;SDS011;64089;51.478;5.692;2023-12-22T07:11:41;17.95;;;3.00;;
42832;SDS011;64089;51.478;5.692;2023-12-22T07:14:08;20.65;;;3.05;;
42832;SDS011;64089;51.478;5.692;2023-12-22T07:16:34;11.20;;;2.30;;
42832;SDS011;64089;51.478;5.692;2023-12-22T07:19:00;22.02;;;3.28;;
42832;SDS011;64089;51.478;5.692;2023-12-22T07:21:26;18.95;;;4.05;;
42832;SDS011;64089;51.478;5.692;2023-12-22T07:23:52;22.75;;;3.03;;
42832;SDS011;64089;51.478;5.692;2023-12-22T07:26:17;29.15;;;5.10;;
42832;SDS011;64089;51.478;5.692;2023-12-22T07:28:43;24.88;;;3.47;;
42832;SDS011;64089;51.478;5.692;2023-12-22T07:31:08;11.57;;;3.65;;
42832;SDS011;64089;51.478;5.692;2023-12-22T07:33:34;22.77;;;3.53;;
42832;SDS011;64089;51.478;5.692;2023-12-22T07:36:00;25.08;;;3.97;;
42832;SDS011;64089;51.478;5.692;2023-12-22T07:38:25;24.73;;;2.35;;
42832;SDS011;64089;51.478;5.692;2023-12-22T07:40:52;13.93;;;2.45;;
42832;SDS011;64089;51.478;5.692;2023-12-22T07:43:17;16.08;;;2.33;;
42832;SDS011;64089;51.478;5.692;2023-12-22T07:45:43;20.75;;;3.28;;
42832;SDS011;64089;51.478;5.692;2023-12-22T07:48:08;15.35;;;3.67;;
42832;SDS011;64089;51.478;5.692;2023-12-22T07:50:34;21.48;;;2.63;;
42832;SDS011;64089;51.478;5.692;2023-12-22T07:52:59;16.65;;;2.90;;
42832;SDS011;64089;51.478;5.692;2023-12-22T07:55:25;14.88;;;3.92;;
42832;SDS011;64089;51.478;5.692;2023-12-22T07:57:51;13.45;;;2.65;;
42832;SDS011;64089;51.478;5.692;2023-12-22T08:00:17;17.75;;;1.95;;
42832;SDS011;64089;51.478;5.692;2023-12-22T08:02:43;20.83;;;3.72;;
42832;SDS011;64089;51.478;5.692;2023-12-22T08:05:09;18.70;;;2.83;;
42832;SDS011;64089;51.478;5.692;2023-12-22T08:07:35;16.80;;;2.47;;
42832;SDS011;64089;51.478;5.692;2023-12-22T08:10:01;15.85;;;2.88;;
42832;SDS011;64089;51.478;5.692;2023-12-22T08:12:28;12.10;;;3.05;;
42832;SDS011;64089;51.478;5.692;2023-12-22T08:14:54;14.02;;;3.15;;
42832;SDS011;64089;51.478;5.692;2023-12-22T08:17:20;26.73;;;3.05;;
42832;SDS011;64089;51.478;5.692;2023-12-22T08:19:45;17.98;;;3.90;;
42832;SDS011;64089;51.478;5.692;2023-12-22T08:22:12;17.15;;;3.35;;
42832;SDS011;64089;51.478;5.692;2023-12-22T08:24:40;14.32;;;2.10;;
42832;SDS011;64089;51.478;5.692;2023-12-22T08:27:06;15.32;;;3.00;;
42832;SDS011;64089;51.478;5.692;2023-12-22T08:29:32;22.85;;;2.80;;
42832;SDS011;64089;51.478;5.692;2023-12-22T08:31:58;15.40;;;2.13;;
42832;SDS011;64089;51.478;5.692;2023-12-22T08:34:25;13.20;;;3.03;;
42832;SDS011;64089;51.478;5.692;2023-12-22T08:36:51;11.70;;;2.15;;
42832;SDS011;64089;51.478;5.692;2023-12-22T08:39:16;23.05;;;3.42;;
42832;SDS011;64089;51.478;5.692;2023-12-22T08:41:42;14.43;;;2.33;;
42832;SDS011;64089;51.478;5.692;2023-12-22T08:44:08;19.08;;;2.85;;
42832;SDS011;64089;51.478;5.692;2023-12-22T08:46:34;11.20;;;2.85;;
42832;SDS011;64089;51.478;5.692;2023-12-22T08:49:00;16.02;;;1.92;;
42832;SDS011;64089;51.478;5.692;2023-12-22T08:51:26;14.85;;;1.95;;
42832;SDS011;64089;51.478;5.692;2023-12-22T08:53:52;10.85;;;1.63;;
42832;SDS011;64089;51.478;5.692;2023-12-22T08:56:19;18.25;;;2.15;;
42832;SDS011;64089;51.478;5.692;2023-12-22T08:58:50;8.55;;;2.65;;
42832;SDS011;64089;51.478;5.692;2023-12-22T09:01:17;13.85;;;2.00;;
42832;SDS011;64089;51.478;5.692;2023-12-22T09:03:43;9.43;;;1.45;;
42832;SDS011;64089;51.478;5.692;2023-12-22T09:06:13;7.35;;;1.73;;
42832;SDS011;64089;51.478;5.692;2023-12-22T09:08:41;12.45;;;1.73;;
42832;SDS011;64089;51.478;5.692;2023-12-22T09:11:07;6.50;;;2.33;;
42832;SDS011;64089;51.478;5.692;2023-12-22T09:13:33;9.00;;;1.52;;
42832;SDS011;64089;51.478;5.692;2023-12-22T09:16:00;6.93;;;0.90;;
42832;SDS011;64089;51.478;5.692;2023-12-22T09:18:27;8.73;;;1.17;;
42832;SDS011;64089;51.478;5.692;2023-12-22T09:20:53;5.07;;;0.90;;
42832;SDS011;64089;51.478;5.692;2023-12-22T09:23:19;1.98;;;1.10;;
42832;SDS011;64089;51.478;5.692;2023-12-22T09:25:46;5.57;;;1.13;;
42832;SDS011;64089;51.478;5.692;2023-12-22T09:28:11;6.35;;;2.08;;
42832;SDS011;64089;51.478;5.692;2023-12-22T09:30:37;2.97;;;0.73;;
42832;SDS011;64089;51.478;5.692;2023-12-22T09:33:03;7.80;;;1.50;;
42832;SDS011;64089;51.478;5.692;2023-12-22T09:35:29;21.35;;;7.05;;
42832;SDS011;64089;51.478;5.692;2023-12-22T09:37:54;19.67;;;5.22;;
42832;SDS011;64089;51.478;5.692;2023-12-22T09:40:20;19.15;;;5.72;;
42832;SDS011;64089;51.478;5.692;2023-12-22T09:42:48;4.95;;;1.27;;
42832;SDS011;64089;51.478;5.692;2023-12-22T09:45:16;3.10;;;0.90;;
42832;SDS011;64089;51.478;5.692;2023-12-22T09:47:45;7.95;;;1.15;;
42832;SDS011;64089;51.478;5.692;2023-12-22T09:50:12;8.80;;;0.80;;
42832;SDS011;64089;51.478;5.692;2023-12-22T09:52:38;3.85;;;0.80;;
42832;SDS011;64089;51.478;5.692;2023-12-22T09:55:14;5.45;;;0.60;;
42832;SDS011;64089;51.478;5.692;2023-12-22T09:57:40;2.60;;;1.08;;
42832;SDS011;64089;51.478;5.692;2023-12-22T10:00:10;4.20;;;1.15;;
42832;SDS011;64089;51.478;5.692;2023-12-22T10:02:38;1.85;;;0.65;;
42832;SDS011;64089;51.478;5.692;2023-12-22T10:05:04;4.55;;;0.65;;
42832;SDS011;64089;51.478;5.692;2023-12-22T10:07:33;5.07;;;0.73;;
42832;SDS011;64089;51.478;5.692;2023-12-22T10:09:59;9.85;;;1.05;;
42832;SDS011;64089;51.478;5.692;2023-12-22T10:12:26;4.20;;;0.80;;
42832;SDS011;64089;51.478;5.692;2023-12-22T10:14:52;2.25;;;0.55;;
42832;SDS011;64089;51.478;5.692;2023-12-22T10:17:19;1.80;;;0.77;;
42832;SDS011;64089;51.478;5.692;2023-12-22T10:19:45;1.70;;;0.38;;
42832;SDS011;64089;51.478;5.692;2023-12-22T10:22:10;2.38;;;0.47;;
42832;SDS011;64089;51.478;5.692;2023-12-22T10:24:43;3.90;;;1.25;;
42832;SDS011;64089;51.478;5.692;2023-12-22T10:27:12;6.82;;;0.70;;
42832;SDS011;64089;51.478;5.692;2023-12-22T10:29:38;6.38;;;0.88;;
42832;SDS011;64089;51.478;5.692;2023-12-22T10:32:05;0.63;;;0.60;;
42832;SDS011;64089;51.478;5.692;2023-12-22T10:34:31;2.97;;;0.68;;
42832;SDS011;64089;51.478;5.692;2023-12-22T10:37:01;2.50;;;0.98;;
42832;SDS011;64089;51.478;5.692;2023-12-22T10:39:30;25.58;;;7.22;;
42832;SDS011;64089;51.478;5.692;2023-12-22T10:41:57;9.70;;;4.50;;
42832;SDS011;64089;51.478;5.692;2023-12-22T10:44:24;17.25;;;5.25;;
42832;SDS011;64089;51.478;5.692;2023-12-22T10:46:50;25.15;;;8.52;;
42832;SDS011;64089;51.478;5.692;2023-12-22T10:49:16;8.07;;;1.80;;
42832;SDS011;64089;51.478;5.692;2023-12-22T10:51:42;4.43;;;0.57;;
42832;SDS011;64089;51.478;5.692;2023-12-22T10:54:07;7.25;;;0.90;;
42832;SDS011;64089;51.478;5.692;2023-12-22T10:56:33;3.30;;;0.55;;
42832;SDS011;64089;51.478;5.692;2023-12-22T10:58:59;8.95;;;0.80;;
42832;SDS011;64089;51.478;5.692;2023-12-22T11:01:29;2.42;;;0.82;;
42832;SDS011;64089;51.478;5.692;2023-12-22T11:03:57;1.30;;;0.70;;
42832;SDS011;64089;51.478;5.692;2023-12-22T11:06:30;5.20;;;1.48;;
42832;SDS011;64089;51.478;5.692;2023-12-22T11:09:00;2.85;;;0.50;;
42832;SDS011;64089;51.478;5.692;2023-12-22T11:11:33;7.15;;;1.08;;
42832;SDS011;64089;51.478;5.692;2023-12-22T11:14:00;5.80;;;1.15;;
42832;SDS011;64089;51.478;5.692;2023-12-22T11:16:27;1.77;;;0.70;;
42832;SDS011;64089;51.478;5.692;2023-12-22T11:18:54;1.83;;;0.80;;
42832;SDS011;64089;51.478;5.692;2023-12-22T11:21:23;10.23;;;1.50;;
42832;SDS011;64089;51.478;5.692;2023-12-22T11:23:50;3.33;;;0.88;;
42832;SDS011;64089;51.478;5.692;2023-12-22T11:26:20;1.30;;;0.90;;
42832;SDS011;64089;51.478;5.692;2023-12-22T11:28:47;3.20;;;0.50;;
42832;SDS011;64089;51.478;5.692;2023-12-22T11:31:16;7.32;;;1.10;;
42832;SDS011;64089;51.478;5.692;2023-12-22T11:36:12;4.43;;;1.40;;
42832;SDS011;64089;51.478;5.692;2023-12-22T11:38:39;7.00;;;1.40;;
42832;SDS011;64089;51.478;5.692;2023-12-22T11:41:07;2.08;;;0.70;;
42832;SDS011;64089;51.478;5.692;2023-12-22T11:43:36;6.57;;;0.77;;
42832;SDS011;64089;51.478;5.692;2023-12-22T11:46:03;11.55;;;0.80;;
42832;SDS011;64089;51.478;5.692;2023-12-22T11:48:29;1.08;;;0.68;;
42832;SDS011;64089;51.478;5.692;2023-12-22T11:50:55;1.95;;;0.55;;
42832;SDS011;64089;51.478;5.692;2023-12-22T11:53:22;4.38;;;0.30;;
42832;SDS011;64089;51.478;5.692;2023-12-22T11:55:55;1.67;;;0.40;;
42832;SDS011;64089;51.478;5.692;2023-12-22T11:58:34;0.28;;;0.20;;
42832;SDS011;64089;51.478;5.692;2023-12-22T12:01:11;6.88;;;0.77;;
42832;SDS011;64089;51.478;5.692;2023-12-22T12:03:41;3.60;;;0.90;;
42832;SDS011;64089;51.478;5.692;2023-12-22T12:08:40;1.80;;;0.77;;
42832;SDS011;64089;51.478;5.692;2023-12-22T12:11:07;3.33;;;1.30;;
42832;SDS011;64089;51.478;5.692;2023-12-22T12:13:33;5.97;;;1.98;;
42832;SDS011;64089;51.478;5.692;2023-12-22T12:15:59;2.97;;;0.63;;
42832;SDS011;64089;51.478;5.692;2023-12-22T12:18:29;3.05;;;0.60;;
42832;SDS011;64089;51.478;5.692;2023-12-22T12:20:56;0.90;;;0.77;;
42832;SDS011;64089;51.478;5.692;2023-12-22T12:23:25;0.98;;;0.40;;
42832;SDS011;64089;51.478;5.692;2023-12-22T12:25:54;4.53;;;1.20;;
42832;SDS011;64089;51.478;5.692;2023-12-22T12:28:30;6.97;;;0.80;;
42832;SDS011;64089;51.478;5.692;2023-12-22T12:31:02;1.67;;;1.02;;
42832;SDS011;64089;51.478;5.692;2023-12-22T12:33:29;1.85;;;0.65;;
42832;SDS011;64089;51.478;5.692;2023-12-22T12:35:56;1.45;;;0.40;;
42832;SDS011;64089;51.478;5.692;2023-12-22T12:38:23;5.88;;;1.52;;
42832;SDS011;64089;51.478;5.692;2023-12-22T12:41:01;3.28;;;0.93;;
42832;SDS011;64089;51.478;5.692;2023-12-22T12:43:30;1.58;;;1.00;;
42832;SDS011;64089;51.478;5.692;2023-12-22T12:46:02;2.25;;;0.80;;
42832;SDS011;64089;51.478;5.692;2023-12-22T12:48:31;4.45;;;1.50;;
42832;SDS011;64089;51.478;5.692;2023-12-22T12:51:03;3.50;;;0.80;;
42832;SDS011;64089;51.478;5.692;2023-12-22T12:53:33;4.05;;;0.88;;
42832;SDS011;64089;51.478;5.692;2023-12-22T12:56:01;6.60;;;0.75;;
42832;SDS011;64089;51.478;5.692;2023-12-22T12:58:27;2.58;;;0.68;;
42832;SDS011;64089;51.478;5.692;2023-12-22T13:01:06;8.35;;;1.35;;
42832;SDS011;64089;51.478;5.692;2023-12-22T13:03:50;7.18;;;0.77;;
42832;SDS011;64089;51.478;5.692;2023-12-22T13:06:17;3.05;;;1.05;;
42832;SDS011;64089;51.478;5.692;2023-12-22T13:08:47;1.00;;;0.47;;
42832;SDS011;64089;51.478;5.692;2023-12-22T13:11:13;2.97;;;0.75;;
42832;SDS011;64089;51.478;5.692;2023-12-22T13:13:42;4.22;;;0.70;;
42832;SDS011;64089;51.478;5.692;2023-12-22T13:16:08;3.85;;;0.50;;
42832;SDS011;64089;51.478;5.692;2023-12-22T13:18:34;5.30;;;1.27;;
42832;SDS011;64089;51.478;5.692;2023-12-22T13:21:01;1.58;;;0.55;;
42832;SDS011;64089;51.478;5.692;2023-12-22T13:23:26;2.22;;;0.63;;
42832;SDS011;64089;51.478;5.692;2023-12-22T13:25:52;3.38;;;0.80;;
42832;SDS011;64089;51.478;5.692;2023-12-22T13:28:27;1.42;;;0.60;;
42832;SDS011;64089;51.478;5.692;2023-12-22T13:30:53;6.07;;;0.82;;
42832;SDS011;64089;51.478;5.692;2023-12-22T13:33:19;4.55;;;1.05;;
42832;SDS011;64089;51.478;5.692;2023-12-22T13:35:45;2.38;;;0.75;;
42832;SDS011;64089;51.478;5.692;2023-12-22T13:38:11;4.63;;;0.73;;
42832;SDS011;64089;51.478;5.692;2023-12-22T13:40:37;3.33;;;1.30;;
42832;SDS011;64089;51.478;5.692;2023-12-22T13:43:04;2.47;;;0.63;;
42832;SDS011;64089;51.478;5.692;2023-12-22T13:45:30;1.30;;;0.70;;
42832;SDS011;64089;51.478;5.692;2023-12-22T13:47:57;5.18;;;1.77;;
42832;SDS011;64089;51.478;5.692;2023-12-22T13:50:23;1.95;;;0.82;;
42832;SDS011;64089;51.478;5.692;2023-12-22T13:52:49;10.50;;;1.23;;
42832;SDS011;64089;51.478;5.692;2023-12-22T13:55:18;1.38;;;0.50;;
42832;SDS011;64089;51.478;5.692;2023-12-22T13:57:47;1.40;;;1.02;;
42832;SDS011;64089;51.478;5.692;2023-12-22T14:02:45;4.80;;;1.23;;
42832;SDS011;64089;51.478;5.692;2023-12-22T14:05:11;7.65;;;1.73;;
42832;SDS011;64089;51.478;5.692;2023-12-22T14:07:37;3.33;;;0.70;;
42832;SDS011;64089;51.478;5.692;2023-12-22T14:10:06;2.00;;;0.88;;
42832;SDS011;64089;51.478;5.692;2023-12-22T14:12:32;4.80;;;1.67;;
42832;SDS011;64089;51.478;5.692;2023-12-22T14:14:58;3.47;;;0.68;;
42832;SDS011;64089;51.478;5.692;2023-12-22T14:17:23;5.10;;;1.13;;
42832;SDS011;64089;51.478;5.692;2023-12-22T14:19:49;7.40;;;1.80;;
42832;SDS011;64089;51.478;5.692;2023-12-22T14:22:15;5.40;;;1.10;;
42832;SDS011;64089;51.478;5.692;2023-12-22T14:24:40;5.63;;;1.85;;
42832;SDS011;64089;51.478;5.692;2023-12-22T14:27:06;6.35;;;1.08;;
42832;SDS011;64089;51.478;5.692;2023-12-22T14:29:32;2.08;;;0.70;;
42832;SDS011;64089;51.478;5.692;2023-12-22T14:31:59;8.18;;;1.05;;
42832;SDS011;64089;51.478;5.692;2023-12-22T14:34:24;6.72;;;0.98;;
42832;SDS011;64089;51.478;5.692;2023-12-22T14:36:50;6.55;;;1.27;;
42832;SDS011;64089;51.478;5.692;2023-12-22T14:39:16;3.92;;;0.95;;
42832;SDS011;64089;51.478;5.692;2023-12-22T14:41:41;3.90;;;1.75;;
42832;SDS011;64089;51.478;5.692;2023-12-22T14:44:10;5.25;;;0.77;;
42832;SDS011;64089;51.478;5.692;2023-12-22T14:46:39;8.35;;;1.00;;
42832;SDS011;64089;51.478;5.692;2023-12-22T14:49:05;2.22;;;0.98;;
42832;SDS011;64089;51.478;5.692;2023-12-22T14:51:38;6.72;;;0.75;;
42832;SDS011;64089;51.478;5.692;2023-12-22T14:54:04;4.50;;;0.75;;
42832;SDS011;64089;51.478;5.692;2023-12-22T14:56:30;6.63;;;1.60;;